KDFI/DFI METAR and TAF weather

Enter ICAO airport designator
Station Type Date Time Source
KDFI METAR 2019/08/19 21:53 UTC NOAA

KDFI 192153Z AUTO 11004KT 10SM BKN041 29/21 A3003 RMK AO2 SLP164 T02890206


Station Type Date Time Source
KDFI Decoded METAR 2019/08/19 21:53 UTC NOAA

DEFIANCE MEMORIAL AIRPORT, OH, United States (KDFI) 41-20N 84-26W 219M
Aug 19, 2019 - 05:53 PM EDT / 2019.08.19 2153 UTC
Wind: from the ESE (110 degrees) at 5 MPH (4 KT):0
Visibility: 10 mile(s):0
Sky conditions: mostly cloudy
Temperature: 84.0 F (28.9 C)
Dew Point: 69.1 F (20.6 C)
Relative Humidity: 60%
Pressure (altimeter): 30.03 in. Hg (1016 hPa)
ob: KDFI 192153Z AUTO 11004KT 10SM BKN041 29/21 A3003 RMK AO2 SLP164 T02890206
cycle: 22

Station Type Date Time Source
KDFI TAF UTC NOAA

Error!

Example: see airport list